createdAt,value
2022-08-22T00:02:30.567Z,101066.81
2022-08-22T00:02:49.713Z,101043.38
2022-08-22T00:02:53.912Z,101028.00
2022-08-22T00:02:57.905Z,101066.06
2022-08-22T00:03:04.028Z,100975.47
2022-08-22T00:05:10.422Z,101067.81
2022-08-22T00:07:49.114Z,101064.50
2022-08-22T00:10:25.864Z,101066.66
2022-08-22T00:13:02.297Z,101070.28
2022-08-22T00:15:43.471Z,101066.91
2022-08-22T00:18:18.658Z,101063.56
2022-08-22T00:20:54.113Z,101067.84
2022-08-22T00:23:29.036Z,101075.75
2022-08-22T00:26:03.131Z,101072.66
2022-08-22T00:28:36.971Z,101070.41
2022-08-22T00:31:16.802Z,101071.47
2022-08-22T00:33:49.716Z,101069.25
2022-08-22T00:36:25.394Z,101076.28
2022-08-22T00:39:04.419Z,101080.66
2022-08-22T00:41:49.460Z,101088.56
2022-08-22T00:44:33.627Z,101097.19
2022-08-22T00:47:21.226Z,101096.44
2022-08-22T00:50:27.842Z,101095.78
2022-08-22T00:53:25.821Z,101078.94
2022-08-22T00:56:06.866Z,101076.81
2022-08-22T00:58:52.913Z,101087.41
2022-08-22T01:01:29.577Z,101082.06
2022-08-22T01:04:33.326Z,101078.94
2022-08-22T01:07:15.129Z,101074.25
2022-08-22T01:09:51.261Z,101078.41
2022-08-22T01:12:34.274Z,101087.06
2022-08-22T01:15:08.205Z,101082.56
2022-08-22T01:18:00.467Z,101080.38
2022-08-22T01:21:07.196Z,101092.41
2022-08-22T01:24:07.932Z,101097.66
2022-08-22T01:27:21.691Z,101102.72
2022-08-22T01:30:32.322Z,101107.75
2022-08-22T01:33:44.147Z,101111.91
2022-08-22T01:36:30.866Z,101106.63
2022-08-22T01:39:15.006Z,101102.50
2022-08-22T01:42:05.013Z,101096.59
2022-08-22T01:45:03.777Z,101093.09
2022-08-22T01:47:38.519Z,101097.38
2022-08-22T01:50:13.995Z,101091.28
2022-08-22T01:52:48.426Z,101090.91
2022-08-22T01:55:27.512Z,101096.91
2022-08-22T01:58:00.253Z,101099.44
2022-08-22T02:00:52.317Z,101094.75
2022-08-22T02:03:29.291Z,101096.75
2022-08-22T02:06:04.177Z,101101.69
2022-08-22T02:08:41.451Z,101098.59
2022-08-22T02:11:11.819Z,101107.75
2022-08-22T02:13:55.364Z,101109.72
2022-08-22T02:16:32.958Z,101104.25
2022-08-22T02:19:12.266Z,101105.66
2022-08-22T02:21:47.199Z,101103.19
2022-08-22T02:24:28.705Z,101112.66
2022-08-22T02:27:09.309Z,101121.63
2022-08-22T02:29:45.840Z,101117.78
2022-08-22T02:32:22.328Z,101116.28
2022-08-22T02:34:58.765Z,101122.91
2022-08-22T02:37:36.568Z,101106.28
2022-08-22T02:40:14.748Z,101099.25
2022-08-22T02:42:48.726Z,101097.19
2022-08-22T02:45:25.752Z,101103.06
2022-08-22T02:48:00.799Z,101098.72
2022-08-22T02:50:39.190Z,101096.34
2022-08-22T02:53:14.489Z,101093.47
2022-08-22T02:56:04.212Z,101090.28
2022-08-22T02:58:44.034Z,101099.66
2022-08-22T03:01:40.788Z,101109.91
2022-08-22T03:04:45.253Z,101118.00
2022-08-22T03:07:25.540Z,101104.78
2022-08-22T03:10:02.553Z,101097.09
2022-08-22T03:12:39.953Z,101092.06
2022-08-22T03:15:14.379Z,101091.56
2022-08-22T03:17:51.663Z,101091.13
2022-08-22T03:20:37.238Z,101093.38
2022-08-22T03:23:14.593Z,101095.94
2022-08-22T03:25:48.218Z,101105.13
2022-08-22T03:28:23.314Z,101091.78
2022-08-22T03:31:01.093Z,101097.31
2022-08-22T03:33:31.259Z,101099.97
2022-08-22T03:36:06.499Z,101093.03
2022-08-22T03:39:08.323Z,101097.75
2022-08-22T03:42:18.761Z,101103.06
2022-08-22T03:45:10.642Z,101104.09
2022-08-22T03:48:11.358Z,101110.59
2022-08-22T03:51:04.927Z,101102.75
2022-08-22T03:53:52.823Z,101103.34
2022-08-22T03:56:41.792Z,101102.84
2022-08-22T03:59:32.145Z,101108.53
2022-08-22T04:02:42.507Z,101114.75
2022-08-22T04:05:49.175Z,101110.97
2022-08-22T04:09:01.216Z,101110.50
2022-08-22T04:12:02.710Z,101106.81
2022-08-22T04:14:49.839Z,101115.13
2022-08-22T04:17:43.648Z,101114.94
2022-08-22T04:20:53.896Z,101126.22
2022-08-22T04:24:00.945Z,101125.59
2022-08-22T04:26:36.478Z,101128.66
2022-08-22T04:29:09.757Z,101130.69
2022-08-22T04:31:49.822Z,101132.19
2022-08-22T04:34:25.571Z,101135.72
2022-08-22T04:37:03.768Z,101142.97
2022-08-22T04:39:39.733Z,101148.50
2022-08-22T04:42:31.613Z,101150.56
2022-08-22T04:45:06.786Z,101147.25
2022-08-22T04:47:38.597Z,101158.19
2022-08-22T04:50:15.062Z,101168.38
2022-08-22T04:52:57.566Z,101166.66
2022-08-22T04:55:34.511Z,101169.25
2022-08-22T04:58:13.002Z,101172.66
2022-08-22T05:00:45.822Z,101168.28
2022-08-22T05:03:20.661Z,101156.19
2022-08-22T05:05:53.012Z,101157.34
2022-08-22T05:08:26.882Z,101146.41
2022-08-22T05:10:55.806Z,101151.84
2022-08-22T05:13:28.156Z,101157.88
2022-08-22T05:16:03.075Z,101162.13
2022-08-22T05:18:37.360Z,101154.69
2022-08-22T05:21:11.244Z,101171.72
2022-08-22T05:23:45.166Z,101168.13
2022-08-22T05:26:15.973Z,101168.78
2022-08-22T05:28:52.539Z,101167.25
2022-08-22T05:31:26.324Z,101164.63
2022-08-22T05:33:59.375Z,101160.53
2022-08-22T05:36:33.459Z,101168.91
2022-08-22T05:39:05.885Z,101169.09
2022-08-22T05:41:37.813Z,101172.53
2022-08-22T05:44:14.161Z,101178.63
2022-08-22T05:46:44.460Z,101185.19
2022-08-22T05:49:19.966Z,101181.78
2022-08-22T05:51:59.232Z,101182.63
2022-08-22T05:54:34.417Z,101173.09
2022-08-22T05:57:10.975Z,101176.63
2022-08-22T05:59:43.156Z,101181.44
2022-08-22T06:02:19.036Z,101184.84
2022-08-22T06:04:51.877Z,101181.28
2022-08-22T06:07:25.972Z,101185.50
2022-08-22T06:10:20.667Z,101180.16
2022-08-22T06:12:57.472Z,101188.94
2022-08-22T06:15:34.151Z,101189.66
2022-08-22T06:18:06.326Z,101187.00
2022-08-22T06:20:39.241Z,101192.00
2022-08-22T06:23:13.452Z,101194.78
2022-08-22T06:25:46.877Z,101198.19
2022-08-22T06:28:20.310Z,101195.50
2022-08-22T06:30:51.384Z,101199.38
2022-08-22T06:33:25.474Z,101181.22
2022-08-22T06:36:16.366Z,101174.19
2022-08-22T06:39:01.758Z,101175.59
2022-08-22T06:41:34.114Z,101162.00
2022-08-22T06:44:06.360Z,101173.91
2022-08-22T06:46:38.162Z,101172.63
2022-08-22T06:49:09.210Z,101175.16
2022-08-22T06:51:39.800Z,101169.66
2022-08-22T06:54:16.583Z,101168.63
2022-08-22T06:56:47.800Z,101159.94
2022-08-22T06:59:18.840Z,101158.22
2022-08-22T07:01:57.967Z,101162.75
2022-08-22T07:04:27.677Z,101165.16
2022-08-22T07:06:58.351Z,101166.66
2022-08-22T07:09:32.100Z,101164.63
2022-08-22T07:12:03.981Z,101161.72
2022-08-22T07:14:39.506Z,101165.88
2022-08-22T07:17:09.763Z,101155.31
2022-08-22T07:19:41.475Z,101151.56
2022-08-22T07:22:15.600Z,101158.75
2022-08-22T07:24:48.712Z,101156.28
2022-08-22T07:27:32.237Z,101163.75
2022-08-22T07:30:09.908Z,101155.72
2022-08-22T07:32:46.842Z,101163.44
2022-08-22T07:35:19.038Z,101165.84
2022-08-22T07:37:55.504Z,101155.50
2022-08-22T07:40:31.958Z,101156.38
2022-08-22T07:43:09.374Z,101159.88
2022-08-22T07:45:44.409Z,101159.63
2022-08-22T07:48:25.893Z,101151.28
2022-08-22T07:51:02.118Z,101162.47
2022-08-22T07:53:37.376Z,101159.06
2022-08-22T07:56:10.717Z,101164.59
2022-08-22T07:58:41.983Z,101158.06
2022-08-22T08:01:16.027Z,101167.84
2022-08-22T08:03:50.578Z,101165.38
2022-08-22T08:06:18.881Z,101162.53
2022-08-22T08:08:47.324Z,101162.13
2022-08-22T08:11:19.305Z,101161.19
2022-08-22T08:13:52.159Z,101162.53
2022-08-22T08:16:24.623Z,101164.47
2022-08-22T08:18:56.695Z,101163.78
2022-08-22T08:21:30.728Z,101169.63
2022-08-22T08:24:01.919Z,101165.25
2022-08-22T08:26:35.372Z,101162.59
2022-08-22T08:29:04.185Z,101172.88
2022-08-22T08:31:38.009Z,101169.88
2022-08-22T08:34:16.024Z,101171.34
2022-08-22T08:36:51.716Z,101177.28
2022-08-22T08:39:26.240Z,101169.44
2022-08-22T08:42:54.698Z,101172.09
2022-08-22T08:45:38.323Z,101176.22
2022-08-22T08:48:24.234Z,101184.19
2022-08-22T08:51:06.777Z,101181.63
2022-08-22T08:53:57.320Z,101184.22
2022-08-22T08:56:35.888Z,101183.75
2022-08-22T09:01:59.541Z,101190.38
2022-08-22T09:04:57.005Z,101189.63
2022-08-22T09:07:43.453Z,101183.06
2022-08-22T09:10:45.142Z,101188.44
2022-08-22T09:13:40.746Z,101190.13
2022-08-22T09:16:24.927Z,101191.00
2022-08-22T09:19:19.981Z,101186.81
2022-08-22T09:22:14.609Z,101189.78
2022-08-22T09:25:24.142Z,101198.25
2022-08-22T09:27:59.618Z,101193.66
2022-08-22T09:30:45.949Z,101198.22
2022-08-22T09:33:31.874Z,101200.47
2022-08-22T09:36:05.201Z,101214.66
2022-08-22T09:38:47.687Z,101205.22
2022-08-22T09:41:27.915Z,101206.13
2022-08-22T09:44:12.191Z,101211.00
2022-08-22T09:46:54.858Z,101206.59
2022-08-22T09:49:36.866Z,101209.50
2022-08-22T09:52:15.121Z,101204.50
2022-08-22T09:54:48.516Z,101206.72
2022-08-22T09:57:26.758Z,101209.09
2022-08-22T10:00:15.690Z,101216.84
2022-08-22T10:02:56.808Z,101223.94
2022-08-22T10:05:41.230Z,101213.69
2022-08-22T10:08:20.293Z,101217.53
2022-08-22T10:11:06.564Z,101215.16
2022-08-22T10:13:46.340Z,101216.16
2022-08-22T10:16:53.776Z,101212.53
2022-08-22T10:19:29.581Z,101222.25
2022-08-22T10:22:32.001Z,101220.53
2022-08-22T10:25:14.559Z,101216.28
2022-08-22T10:27:54.038Z,101218.31
2022-08-22T10:30:27.654Z,101217.44
2022-08-22T10:33:03.392Z,101217.31
2022-08-22T10:35:38.959Z,101217.09
2022-08-22T10:38:14.926Z,101215.06
2022-08-22T10:40:52.037Z,101216.13
2022-08-22T10:43:28.639Z,101210.53
2022-08-22T10:46:04.010Z,101219.41
2022-08-22T10:48:49.176Z,101210.97
2022-08-22T10:51:25.425Z,101220.97
2022-08-22T10:54:10.355Z,101216.75
2022-08-22T10:56:43.815Z,101207.78
2022-08-22T10:59:27.464Z,101202.56
2022-08-22T11:02:09.763Z,101209.22
2022-08-22T11:04:59.106Z,101199.13
2022-08-22T11:07:48.536Z,101211.44
2022-08-22T11:10:28.746Z,101209.59
2022-08-22T11:13:11.837Z,101206.28
2022-08-22T11:15:55.929Z,101208.56
2022-08-22T11:18:36.253Z,101195.16
2022-08-22T11:21:10.917Z,101209.22
2022-08-22T11:23:46.134Z,101204.97
2022-08-22T11:26:33.444Z,101201.84
2022-08-22T11:29:24.866Z,101197.13
2022-08-22T11:32:05.927Z,101192.03
2022-08-22T11:34:47.601Z,101200.41
2022-08-22T11:37:42.566Z,101201.53
2022-08-22T11:40:31.654Z,101196.47
2022-08-22T11:43:18.447Z,101200.19
2022-08-22T11:45:49.650Z,101196.59
2022-08-22T11:48:24.730Z,101198.38
2022-08-22T11:50:59.803Z,101195.06
2022-08-22T11:53:35.802Z,101200.47
2022-08-22T11:56:20.590Z,101200.13
2022-08-22T11:58:59.559Z,101197.72
2022-08-22T12:01:39.598Z,101193.81
2022-08-22T12:04:15.774Z,101203.19
2022-08-22T12:07:03.111Z,101196.66
2022-08-22T12:09:42.076Z,101190.53
2022-08-22T12:12:20.966Z,101198.94
2022-08-22T12:15:00.062Z,101188.31
2022-08-22T12:18:21.207Z,101179.03
2022-08-22T12:21:13.355Z,101172.16
2022-08-22T12:24:05.930Z,101183.91
2022-08-22T12:26:47.256Z,101178.22
2022-08-22T12:29:33.921Z,101183.09
2022-08-22T12:32:58.634Z,101176.72
2022-08-22T12:35:41.952Z,101179.22
2022-08-22T12:38:28.887Z,101177.81
2022-08-22T12:41:13.628Z,101170.06
2022-08-22T12:44:04.501Z,101162.34
2022-08-22T12:46:48.349Z,101159.06
2022-08-22T12:49:38.580Z,101168.34
2022-08-22T12:52:25.031Z,101165.75
2022-08-22T12:55:14.922Z,101154.72
2022-08-22T12:57:54.072Z,101157.00
2022-08-22T13:00:34.624Z,101143.06
2022-08-22T13:03:08.323Z,101152.38
2022-08-22T13:05:41.720Z,101152.16
2022-08-22T13:08:17.601Z,101142.94
2022-08-22T13:10:48.769Z,101154.03
2022-08-22T13:13:31.634Z,101129.97
2022-08-22T13:16:08.667Z,101145.53
2022-08-22T13:18:53.527Z,101147.50
2022-08-22T13:21:32.103Z,101149.88
2022-08-22T13:24:10.561Z,101152.38
2022-08-22T13:26:49.154Z,101151.34
2022-08-22T13:29:26.150Z,101151.19
2022-08-22T13:32:00.279Z,101155.97
2022-08-22T13:34:39.901Z,101149.38
2022-08-22T13:37:16.682Z,101153.84
2022-08-22T13:39:49.198Z,101154.09
2022-08-22T13:42:30.181Z,101144.44
2022-08-22T13:45:04.882Z,101148.50
2022-08-22T13:47:47.108Z,101155.91
2022-08-22T13:50:20.955Z,101151.03
2022-08-22T13:52:56.183Z,101145.50
2022-08-22T13:55:32.744Z,101138.06
2022-08-22T13:58:06.938Z,101143.06
2022-08-22T14:01:10.401Z,101148.63
2022-08-22T14:03:48.804Z,101146.66
2022-08-22T14:06:41.473Z,101139.56
2022-08-22T14:09:31.951Z,101152.75
2022-08-22T14:12:12.271Z,101140.09
2022-08-22T14:14:46.012Z,101138.31
2022-08-22T14:17:21.127Z,101139.78
2022-08-22T14:19:59.749Z,101136.16
2022-08-22T14:22:35.093Z,101139.91
2022-08-22T14:25:10.126Z,101137.53
2022-08-22T14:27:45.757Z,101143.22
2022-08-22T14:30:18.907Z,101148.25
2022-08-22T14:32:52.136Z,101146.03
2022-08-22T14:35:34.699Z,101141.75
2022-08-22T14:38:17.856Z,101144.88
2022-08-22T14:40:53.737Z,101136.63
2022-08-22T14:43:40.675Z,101137.59
2022-08-22T14:46:14.280Z,101143.91
2022-08-22T14:48:50.442Z,101140.84
2022-08-22T14:51:22.390Z,101136.44
2022-08-22T14:53:51.634Z,101130.84
2022-08-22T14:56:24.758Z,101132.72
2022-08-22T14:58:56.873Z,101128.41
2022-08-22T15:01:29.795Z,101136.75
2022-08-22T15:04:03.782Z,101134.44
2022-08-22T15:06:37.255Z,101140.47
2022-08-22T15:09:08.331Z,101137.25
2022-08-22T15:11:42.174Z,101134.94
2022-08-22T15:14:21.867Z,101134.31
2022-08-22T15:16:54.546Z,101132.59
2022-08-22T15:19:27.550Z,101126.75
2022-08-22T15:22:13.618Z,101137.28
2022-08-22T15:24:45.959Z,101136.22
2022-08-22T15:27:18.611Z,101130.53
2022-08-22T15:29:51.398Z,101128.34
2022-08-22T15:32:22.866Z,101130.06
2022-08-22T15:35:03.329Z,101133.22
2022-08-22T15:37:34.951Z,101134.34
2022-08-22T15:40:12.728Z,101133.59
2022-08-22T15:42:46.246Z,101129.63
2022-08-22T15:45:33.721Z,101130.44
2022-08-22T15:48:05.917Z,101126.03
2022-08-22T15:50:39.701Z,101140.91
2022-08-22T15:53:18.674Z,101134.75
2022-08-22T15:56:20.542Z,101135.00
2022-08-22T15:58:55.610Z,101140.53
2022-08-22T16:01:26.338Z,101139.16
2022-08-22T16:03:59.542Z,101144.09
2022-08-22T16:06:42.783Z,101146.31
2022-08-22T16:09:33.590Z,101140.22
2022-08-22T16:12:05.150Z,101132.25
2022-08-22T16:14:52.446Z,101143.22
2022-08-22T16:17:45.919Z,101142.31
2022-08-22T16:20:50.774Z,101142.00
2022-08-22T16:23:18.968Z,101146.28
2022-08-22T16:26:12.125Z,101142.91
2022-08-22T16:29:04.725Z,101151.06
2022-08-22T16:31:38.746Z,101145.06
2022-08-22T16:34:26.410Z,101144.00
2022-08-22T16:37:32.076Z,101136.91
2022-08-22T16:40:14.682Z,101138.69
2022-08-22T16:42:46.390Z,101136.53
2022-08-22T16:45:21.965Z,101140.75
2022-08-22T16:47:58.010Z,101145.00
2022-08-22T16:50:38.220Z,101148.13
2022-08-22T16:53:10.500Z,101148.66
2022-08-22T16:55:49.206Z,101149.78
2022-08-22T16:58:40.261Z,101146.53
2022-08-22T17:01:22.048Z,101152.50
2022-08-22T17:04:02.426Z,101152.22
2022-08-22T17:06:48.471Z,101156.34
2022-08-22T17:09:42.741Z,101148.56
2022-08-22T17:12:25.236Z,101150.66
2022-08-22T17:15:04.527Z,101154.19
2022-08-22T17:17:41.451Z,101154.06
2022-08-22T17:20:26.538Z,101155.94
2022-08-22T17:23:01.637Z,101157.50
2022-08-22T17:25:35.310Z,101153.53
2022-08-22T17:28:18.169Z,101156.53
2022-08-22T17:30:58.628Z,101155.53
2022-08-22T17:34:00.134Z,101151.00
2022-08-22T17:36:42.621Z,101148.72
2022-08-22T17:39:25.533Z,101154.66
2022-08-22T17:42:03.850Z,101162.59
2022-08-22T17:44:40.414Z,101166.59
2022-08-22T17:47:16.089Z,101157.22
2022-08-22T17:49:55.804Z,101158.16
2022-08-22T17:52:35.863Z,101167.06
2022-08-22T17:55:14.918Z,101160.59
2022-08-22T17:57:50.093Z,101163.69
2022-08-22T18:00:24.121Z,101162.09
2022-08-22T18:02:57.563Z,101172.06
2022-08-22T18:05:31.001Z,101164.56
2022-08-22T18:08:08.758Z,101158.63
2022-08-22T18:10:46.482Z,101159.47
2022-08-22T18:13:21.991Z,101162.59
2022-08-22T18:16:00.779Z,101164.56
2022-08-22T18:18:35.157Z,101158.47
2022-08-22T18:21:10.933Z,101153.94
2022-08-22T18:23:45.251Z,101162.81
2022-08-22T18:26:24.365Z,101165.13
2022-08-22T18:29:00.738Z,101161.38
2022-08-22T18:31:47.520Z,101166.16
2022-08-22T18:34:27.949Z,101165.44
2022-08-22T18:37:01.957Z,101162.34
2022-08-22T18:39:42.078Z,101165.44
2022-08-22T18:42:22.109Z,101169.38
2022-08-22T18:44:50.585Z,101176.31
2022-08-22T18:47:24.848Z,101168.97
2022-08-22T18:49:55.007Z,101181.69
2022-08-22T18:52:36.150Z,101175.38
2022-08-22T18:55:32.357Z,101176.72
2022-08-22T18:58:26.839Z,101177.66
2022-08-22T19:01:19.395Z,101177.16
2022-08-22T19:04:13.184Z,101183.75
2022-08-22T19:06:58.450Z,101184.47
2022-08-22T19:09:50.033Z,101183.59
2022-08-22T19:12:42.981Z,101181.63
2022-08-22T19:15:25.057Z,101188.16
2022-08-22T19:18:34.440Z,101191.78
2022-08-22T19:21:35.839Z,101189.22
2022-08-22T19:24:09.306Z,101191.66
2022-08-22T19:26:40.984Z,101185.78
2022-08-22T19:29:42.419Z,101179.28
2022-08-22T19:32:33.629Z,101178.84
2022-08-22T19:35:19.537Z,101190.22
2022-08-22T19:37:55.813Z,101180.03
2022-08-22T19:40:54.195Z,101187.34
2022-08-22T19:43:32.568Z,101188.38
2022-08-22T19:46:04.746Z,101192.75
2022-08-22T19:48:44.515Z,101194.19
2022-08-22T19:51:25.379Z,101195.94
2022-08-22T19:54:15.794Z,101198.16
2022-08-22T19:57:02.679Z,101201.78
2022-08-22T19:59:50.991Z,101202.66
2022-08-22T20:02:31.939Z,101202.69
2022-08-22T20:05:18.600Z,101207.16
2022-08-22T20:08:00.567Z,101195.47
2022-08-22T20:10:39.061Z,101195.88
2022-08-22T20:13:11.799Z,101192.00
2022-08-22T20:16:02.473Z,101202.09
2022-08-22T20:19:00.203Z,101207.00
2022-08-22T20:21:58.013Z,101205.63
2022-08-22T20:24:36.502Z,101195.88
2022-08-22T20:27:15.141Z,101207.50
2022-08-22T20:29:49.750Z,101208.03
2022-08-22T20:32:21.414Z,101205.84
2022-08-22T20:34:54.554Z,101215.41
2022-08-22T20:37:45.335Z,101211.41
2022-08-22T20:40:55.095Z,101219.97
2022-08-22T20:43:18.535Z,101220.47
2022-08-22T20:45:59.475Z,101220.75
2022-08-22T20:48:36.809Z,101225.13
2022-08-22T20:51:06.855Z,101231.75
2022-08-22T20:53:37.248Z,101240.53
2022-08-22T20:56:08.077Z,101229.78
2022-08-22T20:58:40.401Z,101227.81
2022-08-22T21:01:12.079Z,101228.69
2022-08-22T21:03:43.601Z,101231.81
2022-08-22T21:06:14.723Z,101228.69
2022-08-22T21:08:46.534Z,101229.78
2022-08-22T21:11:42.207Z,101226.09
2022-08-22T21:14:21.538Z,101236.75
2022-08-22T21:16:50.087Z,101226.06
2022-08-22T21:19:20.763Z,101231.75
2022-08-22T21:21:48.956Z,101245.97
2022-08-22T21:24:18.591Z,101241.09
2022-08-22T21:26:50.802Z,101249.50
2022-08-22T21:29:27.026Z,101242.44
2022-08-22T21:32:11.929Z,101240.38
2022-08-22T21:34:45.239Z,101245.13
2022-08-22T21:37:16.507Z,101241.53
2022-08-22T21:39:49.082Z,101244.19
2022-08-22T21:42:25.080Z,101247.75
2022-08-22T21:44:58.359Z,101243.69
2022-08-22T21:47:31.688Z,101245.03
2022-08-22T21:50:28.255Z,101244.69
2022-08-22T21:53:11.831Z,101257.19
2022-08-22T21:55:46.660Z,101275.97
2022-08-22T21:58:35.806Z,101282.19
2022-08-22T22:01:28.299Z,101293.31
2022-08-22T22:03:57.524Z,101297.06
2022-08-22T22:06:26.184Z,101296.47
2022-08-22T22:08:54.490Z,101307.53
2022-08-22T22:11:24.007Z,101297.00
2022-08-22T22:13:52.404Z,101300.19
2022-08-22T22:16:25.834Z,101293.69
2022-08-22T22:18:54.598Z,101295.72
2022-08-22T22:21:22.971Z,101283.81
2022-08-22T22:23:51.501Z,101282.34
2022-08-22T22:26:20.955Z,101283.38
2022-08-22T22:28:51.183Z,101287.53
2022-08-22T22:31:19.562Z,101292.44
2022-08-22T22:33:47.761Z,101298.09
2022-08-22T22:36:19.768Z,101314.13
2022-08-22T22:38:48.730Z,101306.63
2022-08-22T22:41:21.212Z,101319.03
2022-08-22T22:43:50.712Z,101321.34
2022-08-22T22:46:18.930Z,101320.84
2022-08-22T22:48:47.089Z,101312.22
2022-08-22T22:51:16.035Z,101305.75
2022-08-22T22:53:44.851Z,101319.91
2022-08-22T22:56:15.915Z,101321.50
2022-08-22T22:58:44.530Z,101321.97
2022-08-22T23:01:17.299Z,101320.03
2022-08-22T23:03:46.674Z,101323.44
2022-08-22T23:06:18.455Z,101329.16
2022-08-22T23:08:47.233Z,101334.28
2022-08-22T23:11:18.446Z,101329.16
2022-08-22T23:13:48.169Z,101329.16
2022-08-22T23:16:21.883Z,101324.78
2022-08-22T23:18:50.339Z,101334.91
2022-08-22T23:21:20.613Z,101327.09
2022-08-22T23:23:49.707Z,101323.53
2022-08-22T23:26:18.597Z,101320.13
2022-08-22T23:28:47.194Z,101319.03
2022-08-22T23:31:18.560Z,101309.75
2022-08-22T23:33:47.446Z,101304.78
2022-08-22T23:36:18.711Z,101297.59
2022-08-22T23:38:47.356Z,101292.97
2022-08-22T23:41:17.842Z,101288.97
2022-08-22T23:43:49.639Z,101279.34
2022-08-22T23:46:22.282Z,101277.53
2022-08-22T23:48:50.682Z,101278.13
2022-08-22T23:51:23.212Z,101274.00
2022-08-22T23:53:52.012Z,101271.44
2022-08-22T23:56:22.903Z,101283.00
2022-08-22T23:58:53.344Z,101267.63
